createdAt,value
2022-12-04T00:01:31.696Z,99238.98
2022-12-04T00:06:35.670Z,99239.52
2022-12-04T00:11:37.910Z,99244.39
2022-12-04T00:16:40.404Z,99246.97
2022-12-04T00:21:42.074Z,99245.42
2022-12-04T00:26:43.235Z,99238.77
2022-12-04T00:31:45.525Z,99237.58
2022-12-04T00:36:46.671Z,99244.52
2022-12-04T00:41:47.947Z,99235.86
2022-12-04T00:46:49.312Z,99236.89
2022-12-04T00:51:50.472Z,99238.63
2022-12-04T00:56:51.636Z,99235.23
2022-12-04T01:02:01.601Z,99227.05
2022-12-04T01:07:05.173Z,99224.41
2022-12-04T01:12:06.890Z,99217.32
2022-12-04T01:17:08.055Z,99215.64
2022-12-04T01:22:09.370Z,99219.02
2022-12-04T01:27:10.531Z,99218.13
2022-12-04T01:32:11.837Z,99215.85
2022-12-04T01:37:13.202Z,99206.56
2022-12-04T01:42:15.829Z,99202.73
2022-12-04T01:47:16.890Z,99206.75
2022-12-04T01:52:22.128Z,99205.27
2022-12-04T01:57:27.174Z,99200.34
2022-12-04T02:02:37.288Z,99198.88
2022-12-04T02:07:39.894Z,99192.27
2022-12-04T02:12:43.859Z,99185.95
2022-12-04T02:17:59.363Z,99183.79
2022-12-04T02:23:33.470Z,99186.21
2022-12-04T02:28:56.257Z,99189.15
2022-12-04T02:34:12.594Z,99190.58
2022-12-04T02:39:21.209Z,99190.10
2022-12-04T02:44:30.241Z,99188.87
2022-12-04T02:49:53.367Z,99178.79
2022-12-04T02:55:06.756Z,99174.35
2022-12-04T03:00:10.630Z,99168.87
2022-12-04T03:05:18.923Z,99171.63
2022-12-04T03:10:35.367Z,99173.70
2022-12-04T03:15:47.865Z,99175.75
2022-12-04T03:20:55.843Z,99177.95
2022-12-04T03:26:14.571Z,99168.67
2022-12-04T03:31:21.142Z,99167.70
2022-12-04T03:36:27.766Z,99166.52
2022-12-04T03:41:46.550Z,99155.30
2022-12-04T03:47:05.405Z,99146.21
2022-12-04T03:52:29.194Z,99151.46
2022-12-04T03:57:37.307Z,99155.91
2022-12-04T04:02:56.831Z,99159.88
2022-12-04T04:08:21.609Z,99163.24
2022-12-04T04:13:49.407Z,99160.10
2022-12-04T04:19:12.258Z,99156.73
2022-12-04T04:24:30.932Z,99155.71
2022-12-04T04:29:32.502Z,99159.38
2022-12-04T04:34:43.320Z,99160.21
2022-12-04T04:40:31.246Z,99166.98
2022-12-04T04:45:50.225Z,99166.95
2022-12-04T04:50:52.917Z,99168.88
2022-12-04T04:55:54.185Z,99160.70
2022-12-04T05:01:02.765Z,99159.71
2022-12-04T05:06:05.995Z,99160.77
2022-12-04T05:11:13.964Z,99159.12
2022-12-04T05:16:16.003Z,99159.97
2022-12-04T05:21:17.293Z,99155.35
2022-12-04T05:26:18.555Z,99152.91
2022-12-04T05:31:19.885Z,99156.88
2022-12-04T05:36:21.078Z,99164.20
2022-12-04T05:41:22.810Z,99165.47
2022-12-04T05:46:24.149Z,99165.83
2022-12-04T05:51:25.377Z,99165.77
2022-12-04T05:56:27.766Z,99161.59
2022-12-04T06:01:28.883Z,99166.83
2022-12-04T06:06:30.089Z,99163.91
2022-12-04T06:11:37.229Z,99161.54
2022-12-04T06:16:42.205Z,99170.58
2022-12-04T06:21:45.792Z,99171.84
2022-12-04T06:27:25.132Z,99174.04
2022-12-04T06:32:08.801Z,99176.81
2022-12-04T06:37:10.230Z,99174.35
2022-12-04T06:42:11.601Z,99178.66
2022-12-04T06:47:12.756Z,99185.02
2022-12-04T06:52:14.016Z,99189.95
2022-12-04T06:57:15.282Z,99193.50
2022-12-04T07:02:16.588Z,99187.75
2022-12-04T07:07:17.914Z,99190.84
2022-12-04T07:12:19.092Z,99195.08
2022-12-04T07:17:20.234Z,99190.29
2022-12-04T07:22:21.368Z,99192.96
2022-12-04T07:27:22.657Z,99196.53
2022-12-04T07:32:24.021Z,99195.95
2022-12-04T07:37:25.791Z,99199.27
2022-12-04T07:42:28.180Z,99200.33
2022-12-04T07:47:29.240Z,99207.36
2022-12-04T07:52:30.916Z,99207.05
2022-12-04T07:57:32.284Z,99208.02
2022-12-04T08:02:33.480Z,99207.64
2022-12-04T08:07:34.797Z,99213.27
2022-12-04T08:12:36.129Z,99219.02
2022-12-04T08:17:37.267Z,99217.52
2022-12-04T08:22:38.618Z,99211.50
2022-12-04T08:27:45.961Z,99211.14
2022-12-04T08:32:48.699Z,99206.44
2022-12-04T08:37:49.888Z,99192.63
2022-12-04T08:42:51.150Z,99193.54
2022-12-04T08:47:52.666Z,99198.59
2022-12-04T08:52:54.059Z,99204.17
2022-12-04T08:57:55.218Z,99204.38
2022-12-04T09:02:57.095Z,99201.82
2022-12-04T09:07:58.307Z,99207.34
2022-12-04T09:12:59.529Z,99211.64
2022-12-04T09:18:00.781Z,99215.00
2022-12-04T09:23:04.728Z,99219.41
2022-12-04T09:28:06.276Z,99218.08
2022-12-04T09:33:14.915Z,99211.68
2022-12-04T09:38:16.053Z,99212.77
2022-12-04T09:43:48.877Z,99213.70
2022-12-04T09:48:51.572Z,99206.72
2022-12-04T09:54:02.155Z,99199.03
2022-12-04T09:59:24.056Z,99196.42
2022-12-04T10:04:25.532Z,99194.27
2022-12-04T10:09:48.129Z,99189.80
2022-12-04T10:15:19.500Z,99188.38
2022-12-04T10:20:49.330Z,99177.98
2022-12-04T10:25:54.535Z,99169.82
2022-12-04T10:31:01.157Z,99173.15
2022-12-04T10:36:03.197Z,99162.17
2022-12-04T10:41:15.189Z,99164.97
2022-12-04T10:46:30.822Z,99162.31
2022-12-04T10:51:40.591Z,99156.55
2022-12-04T10:57:10.259Z,99147.34
2022-12-04T11:02:11.509Z,99153.38
2022-12-04T11:07:21.320Z,99149.60
2022-12-04T11:12:23.158Z,99142.98
2022-12-04T11:17:24.219Z,99128.44
2022-12-04T11:22:25.484Z,99136.35
2022-12-04T11:27:33.658Z,99138.23
2022-12-04T11:32:37.227Z,99128.30
2022-12-04T11:37:43.662Z,99120.31
2022-12-04T11:43:09.503Z,99118.59
2022-12-04T11:48:16.854Z,99127.06
2022-12-04T11:53:36.344Z,99124.90
2022-12-04T11:58:52.599Z,99122.86
2022-12-04T12:04:05.940Z,99119.34
2022-12-04T12:09:16.204Z,99126.84
2022-12-04T12:14:25.345Z,99123.81
2022-12-04T12:19:38.468Z,99124.23
2022-12-04T12:25:10.860Z,99130.80
2022-12-04T12:30:18.784Z,99128.10
2022-12-04T12:35:44.407Z,99133.83
2022-12-04T12:40:58.501Z,99133.05
2022-12-04T12:46:03.671Z,99132.21
2022-12-04T12:51:35.036Z,99131.13
2022-12-04T12:56:46.294Z,99129.80
2022-12-04T13:02:14.012Z,99131.73
2022-12-04T13:07:18.418Z,99131.96
2022-12-04T13:12:22.291Z,99128.36
2022-12-04T13:17:39.066Z,99124.39
2022-12-04T13:23:12.214Z,99124.23
2022-12-04T13:28:35.663Z,99121.06
2022-12-04T13:34:04.880Z,99114.23
2022-12-04T13:39:35.532Z,99111.73
2022-12-04T13:44:36.687Z,99109.20
2022-12-04T13:49:45.267Z,99108.36
2022-12-04T13:54:58.185Z,99115.17
2022-12-04T14:00:26.503Z,99118.85
2022-12-04T14:05:41.057Z,99116.05
2022-12-04T14:10:42.435Z,99118.07
2022-12-04T14:15:44.072Z,99117.09
2022-12-04T14:20:58.388Z,99113.91
2022-12-04T14:26:00.733Z,99103.67
2022-12-04T14:31:04.741Z,99097.33
2022-12-04T14:36:10.544Z,99094.23
2022-12-04T14:41:11.791Z,99106.35
2022-12-04T14:46:25.114Z,99107.24
2022-12-04T14:51:51.745Z,99110.02
2022-12-04T14:57:05.178Z,99112.30
2022-12-04T15:02:18.077Z,99111.23
2022-12-04T15:07:21.285Z,99105.56
2022-12-04T15:12:33.196Z,99107.87
2022-12-04T15:17:34.766Z,99121.20
2022-12-04T15:22:36.032Z,99133.33
2022-12-04T15:27:37.395Z,99123.45
2022-12-04T15:32:38.468Z,99119.68
2022-12-04T15:37:40.534Z,99118.80
2022-12-04T15:42:41.691Z,99116.16
2022-12-04T15:47:42.703Z,99113.13
2022-12-04T15:53:12.791Z,99117.80
2022-12-04T15:58:18.902Z,99127.61
2022-12-04T16:03:26.114Z,99142.48
2022-12-04T16:08:32.835Z,99136.41
2022-12-04T16:13:37.097Z,99128.35
2022-12-04T16:18:38.926Z,99130.92
2022-12-04T16:23:40.070Z,99142.59
2022-12-04T16:28:41.497Z,99141.60
2022-12-04T16:33:42.606Z,99139.00
2022-12-04T16:38:43.847Z,99144.04
2022-12-04T16:43:45.181Z,99143.52
2022-12-04T16:48:46.349Z,99146.64
2022-12-04T16:53:48.633Z,99140.03
2022-12-04T16:58:49.996Z,99138.63
2022-12-04T17:03:51.177Z,99133.90
2022-12-04T17:08:52.324Z,99138.51
2022-12-04T17:13:53.385Z,99137.96
2022-12-04T17:18:54.559Z,99127.36
2022-12-04T17:23:56.013Z,99130.94
2022-12-04T17:28:57.779Z,99127.68
2022-12-04T17:33:58.913Z,99124.66
2022-12-04T17:39:03.448Z,99139.94
2022-12-04T17:44:04.850Z,99138.09
2022-12-04T17:49:07.495Z,99137.65
2022-12-04T17:54:10.273Z,99130.86
2022-12-04T17:59:11.704Z,99135.84
2022-12-04T18:04:12.842Z,99142.89
2022-12-04T18:09:15.850Z,99144.98
2022-12-04T18:14:31.467Z,99135.83
2022-12-04T18:19:32.629Z,99137.09
2022-12-04T18:24:33.799Z,99141.98
2022-12-04T18:29:35.770Z,99135.15
2022-12-04T18:34:37.135Z,99132.66
2022-12-04T18:39:38.250Z,99133.79
2022-12-04T18:44:40.275Z,99121.68
2022-12-04T18:49:41.549Z,99136.71
2022-12-04T18:54:42.952Z,99130.09
2022-12-04T18:59:44.166Z,99122.83
2022-12-04T19:04:46.045Z,99122.48
2022-12-04T19:10:21.704Z,99119.08
2022-12-04T19:15:08.638Z,99114.50
2022-12-04T19:20:10.405Z,99125.89
2022-12-04T19:25:11.572Z,99126.93
2022-12-04T19:30:13.352Z,99126.48
2022-12-04T19:35:14.610Z,99125.80
2022-12-04T19:40:15.911Z,99141.52
2022-12-04T19:45:17.191Z,99142.89
2022-12-04T19:50:18.398Z,99138.87
2022-12-04T19:55:19.524Z,99137.89
2022-12-04T20:00:20.661Z,99135.33
2022-12-04T20:05:21.773Z,99132.63
2022-12-04T20:10:22.848Z,99140.54
2022-12-04T20:15:23.999Z,99140.58
2022-12-04T20:20:25.157Z,99134.84
2022-12-04T20:25:26.352Z,99145.36
2022-12-04T20:30:27.802Z,99142.27
2022-12-04T20:35:28.922Z,99134.98
2022-12-04T20:40:30.357Z,99141.73
2022-12-04T20:45:32.431Z,99149.23
2022-12-04T20:50:33.654Z,99145.27
2022-12-04T20:55:34.816Z,99143.39
2022-12-04T21:00:36.079Z,99134.88
2022-12-04T21:05:37.236Z,99129.08
2022-12-04T21:10:38.402Z,99135.79
2022-12-04T21:15:58.264Z,99135.44
2022-12-04T21:21:00.916Z,99138.70
2022-12-04T21:26:02.359Z,99137.39
2022-12-04T21:31:05.434Z,99145.13
2022-12-04T21:36:08.994Z,99141.23
2022-12-04T21:41:30.692Z,99132.88
2022-12-04T21:46:32.280Z,99133.45
2022-12-04T21:51:56.339Z,99133.32
2022-12-04T21:56:55.883Z,99133.20
2022-12-04T22:01:57.334Z,99137.20
2022-12-04T22:06:58.549Z,99121.90
2022-12-04T22:11:59.809Z,99121.73
2022-12-04T22:17:03.426Z,99119.24
2022-12-04T22:22:04.691Z,99123.92
2022-12-04T22:27:05.839Z,99117.77
2022-12-04T22:32:06.975Z,99117.85
2022-12-04T22:37:10.371Z,99117.21
2022-12-04T22:42:11.479Z,99110.02
2022-12-04T22:47:12.689Z,99102.20
2022-12-04T22:52:15.034Z,99101.48
2022-12-04T22:57:16.852Z,99096.23
2022-12-04T23:02:18.581Z,99108.27
2022-12-04T23:07:19.752Z,99101.66
2022-12-04T23:12:20.882Z,99099.28
2022-12-04T23:17:22.518Z,99099.81
2022-12-04T23:22:23.735Z,99093.77
2022-12-04T23:27:24.895Z,99092.08
2022-12-04T23:32:25.976Z,99091.25
2022-12-04T23:37:27.068Z,99090.86
2022-12-04T23:42:31.891Z,99091.48
2022-12-04T23:47:36.103Z,99083.45
2022-12-04T23:52:37.262Z,99081.60
2022-12-04T23:57:38.344Z,99072.88
